Time;durP1;ratioP1;P1;durP2;ratioP2;P2;SDS_P1;SDS_P2;PMS_P1;PMS_P2;Temp;Humidity;BMP_temperature;BMP_pressure;BME280_temperature;BME280_humidity;BME280_pressure;Samples;Min_cycle;Max_cycle;Signal;HPM_P1;HPM_P2
2022/04/15 00:01:53;;;;;;;844.43;792.00;;;8.10;99.90;;;;;;5096431;28;20450;-82
2022/04/15 00:04:20;;;;;;;870.27;813.37;;;8.10;99.90;;;;;;5080160;28;20462;-82
2022/04/15 00:06:47;;;;;;;865.43;807.90;;;8.10;99.90;;;;;;5084086;28;20477;-82
2022/04/15 00:09:13;;;;;;;862.93;805.77;;;8.20;99.90;;;;;;5093864;28;20447;-82
2022/04/15 00:11:40;;;;;;;886.40;826.10;;;8.10;99.90;;;;;;5084684;28;20850;-82
2022/04/15 00:14:07;;;;;;;865.87;807.37;;;8.20;99.90;;;;;;5094922;28;20480;-82
2022/04/15 00:16:34;;;;;;;857.30;797.60;;;8.10;99.90;;;;;;5086592;28;20465;-82
2022/04/15 00:19:02;;;;;;;839.63;780.60;;;8.20;99.90;;;;;;5093820;28;20473;-82
2022/04/15 00:21:29;;;;;;;840.03;782.33;;;8.20;99.90;;;;;;5081416;28;20450;-81
2022/04/15 00:23:57;;;;;;;842.03;784.87;;;8.30;99.90;;;;;;5093716;28;20450;-82
2022/04/15 00:26:23;;;;;;;820.37;767.07;;;8.40;99.90;;;;;;5080965;28;20456;-81
2022/04/15 00:28:52;;;;;;;822.53;768.07;;;8.40;99.90;;;;;;5079568;28;20450;-82
2022/04/15 00:31:19;;;;;;;823.60;769.40;;;8.40;99.90;;;;;;5093739;28;20456;-82
2022/04/15 00:33:46;;;;;;;813.00;761.40;;;8.40;99.90;;;;;;5080740;28;20495;-82
2022/04/15 00:36:14;;;;;;;816.90;764.00;;;8.50;99.90;;;;;;5090612;28;20954;-82
2022/04/15 00:38:41;;;;;;;794.80;743.77;;;8.40;99.90;;;;;;5090811;28;20450;-82
2022/04/15 00:41:13;;;;;;;796.07;746.47;;;8.40;99.90;;;;;;5080645;28;20463;-82
2022/04/15 00:43:40;;;;;;;805.07;755.43;;;8.20;99.90;;;;;;5092194;28;20950;-82
2022/04/15 00:46:07;;;;;;;801.80;750.70;;;8.30;99.90;;;;;;5085237;28;20454;-82
2022/04/15 00:48:35;;;;;;;822.63;767.97;;;8.10;99.90;;;;;;5086825;28;20456;-82
2022/04/15 00:51:01;;;;;;;819.43;765.03;;;8.00;99.90;;;;;;5081925;28;20453;-82
2022/04/15 00:53:31;;;;;;;842.17;784.07;;;8.00;99.90;;;;;;5081449;28;20485;-82
2022/04/15 00:56:00;;;;;;;829.00;770.50;;;8.00;99.90;;;;;;5090293;28;20482;-82
2022/04/15 00:58:29;;;;;;;822.03;762.57;;;8.00;99.90;;;;;;5089673;28;20555;-82
2022/04/15 01:00:57;;;;;;;835.80;773.17;;;8.10;99.90;;;;;;5079898;28;20820;-82
2022/04/15 01:03:24;;;;;;;837.07;773.73;;;8.20;99.90;;;;;;5094987;28;20446;-82
2022/04/15 01:05:56;;;;;;;834.77;774.10;;;8.20;99.90;;;;;;5093277;28;20450;-82
2022/04/15 01:08:26;;;;;;;847.57;782.57;;;8.10;99.90;;;;;;5087122;28;20474;-82
2022/04/15 01:10:57;;;;;;;838.33;775.03;;;8.20;99.90;;;;;;5090006;28;20457;-82
2022/04/15 01:13:26;;;;;;;841.47;779.03;;;8.30;99.90;;;;;;5082535;28;21050;-82
2022/04/15 01:15:54;;;;;;;839.07;777.07;;;8.30;99.90;;;;;;5082475;28;20446;-82
2022/04/15 01:18:21;;;;;;;828.37;768.07;;;8.30;99.90;;;;;;5076202;28;20470;-82
2022/04/15 01:20:49;;;;;;;838.03;776.03;;;8.20;99.90;;;;;;5076592;28;20453;-82
2022/04/15 01:23:18;;;;;;;829.80;769.10;;;8.20;99.90;;;;;;5076000;28;20451;-82
2022/04/15 01:25:45;;;;;;;838.63;775.50;;;8.10;99.90;;;;;;5075361;28;20450;-82
2022/04/15 01:28:16;;;;;;;837.33;773.53;;;8.20;99.90;;;;;;5074668;28;20466;-81
2022/04/15 01:30:44;;;;;;;831.37;769.97;;;8.30;99.90;;;;;;5076001;28;20470;-82
2022/04/15 01:33:10;;;;;;;841.60;778.80;;;8.20;99.90;;;;;;5075989;28;20521;-82
2022/04/15 01:35:37;;;;;;;839.03;775.87;;;8.20;99.90;;;;;;5075895;28;20454;-82
2022/04/15 01:38:07;;;;;;;835.17;770.97;;;8.20;99.90;;;;;;5101228;22;20492;-82
2022/04/15 01:40:35;;;;;;;838.40;774.60;;;8.10;99.90;;;;;;5092648;28;20448;-82
2022/04/15 01:43:03;;;;;;;853.50;787.07;;;8.20;99.90;;;;;;5092968;28;22059;-82
2022/04/15 01:45:30;;;;;;;845.20;779.00;;;8.20;99.90;;;;;;5092937;28;20449;-82
2022/04/15 01:47:56;;;;;;;847.23;781.63;;;8.20;99.90;;;;;;5090749;28;20480;-82
2022/04/15 01:50:24;;;;;;;850.50;784.73;;;8.20;99.90;;;;;;5090931;28;20464;-82
2022/04/15 01:52:51;;;;;;;852.97;789.80;;;8.20;99.90;;;;;;5072849;28;20466;-81
2022/04/15 01:55:18;;;;;;;857.70;792.50;;;8.00;99.90;;;;;;5087225;28;20456;-82
2022/04/15 01:57:46;;;;;;;868.17;799.77;;;8.00;99.90;;;;;;5079095;28;20473;-82
2022/04/15 02:00:13;;;;;;;869.23;799.90;;;8.00;99.90;;;;;;5091789;28;20450;-82
2022/04/15 02:02:40;;;;;;;885.43;814.83;;;8.00;99.90;;;;;;5087430;28;20455;-82
2022/04/15 02:05:08;;;;;;;887.57;814.90;;;7.80;99.90;;;;;;5072782;28;20990;-83
2022/04/15 02:07:35;;;;;;;876.90;804.37;;;7.80;99.90;;;;;;5077142;28;20547;-82
2022/04/15 02:10:02;;;;;;;861.77;791.10;;;8.10;99.90;;;;;;5091601;28;20454;-82
2022/04/15 02:12:28;;;;;;;883.90;812.30;;;7.90;99.90;;;;;;5074982;28;20947;-84
2022/04/15 02:14:56;;;;;;;870.67;798.80;;;7.90;99.90;;;;;;5092712;28;20450;-82
2022/04/15 02:17:23;;;;;;;867.17;796.80;;;7.90;99.90;;;;;;5092107;28;20476;-82
2022/04/15 02:19:50;;;;;;;866.30;797.13;;;7.80;99.90;;;;;;5091465;28;20869;-82
2022/04/15 02:22:17;;;;;;;862.57;792.97;;;7.80;99.90;;;;;;5093243;28;20453;-83
2022/04/15 02:24:44;;;;;;;857.23;790.70;;;7.70;99.90;;;;;;5087815;28;20501;-82
2022/04/15 02:27:11;;;;;;;857.03;790.87;;;7.70;99.90;;;;;;5063237;28;20488;-82
2022/04/15 02:29:37;;;;;;;854.27;788.10;;;7.60;99.90;;;;;;5093164;28;20939;-82
2022/04/15 02:32:07;;;;;;;861.13;792.53;;;7.50;99.90;;;;;;5077185;28;20462;-82
2022/04/15 02:34:33;;;;;;;881.80;810.13;;;7.40;99.90;;;;;;5076830;28;20442;-81
2022/04/15 02:37:00;;;;;;;883.00;809.90;;;7.40;99.90;;;;;;5088747;28;20480;-82
2022/04/15 02:39:27;;;;;;;891.27;814.57;;;7.40;99.90;;;;;;5089295;28;20449;-82
2022/04/15 02:41:56;;;;;;;888.70;814.07;;;7.30;99.90;;;;;;5089645;28;20454;-82
2022/04/15 02:44:23;;;;;;;894.13;817.50;;;7.30;99.90;;;;;;5087175;28;20564;-82
2022/04/15 02:46:51;;;;;;;899.00;820.23;;;7.20;99.90;;;;;;5083328;28;20477;-82
2022/04/15 02:49:20;;;;;;;897.60;817.30;;;7.20;99.90;;;;;;5075043;28;20457;-82
2022/04/15 02:51:46;;;;;;;922.23;840.17;;;7.30;99.90;;;;;;5075184;28;20454;-82
2022/04/15 02:54:13;;;;;;;931.20;848.23;;;7.30;99.90;;;;;;5074661;28;20442;-83
2022/04/15 02:56:40;;;;;;;922.97;837.73;;;7.20;99.90;;;;;;5075483;28;20810;-82
2022/04/15 02:59:07;;;;;;;915.33;829.93;;;7.30;99.90;;;;;;5074094;28;20450;-85
2022/04/15 03:01:33;;;;;;;921.73;835.23;;;7.30;99.90;;;;;;5074819;28;20454;-84
2022/04/15 03:04:00;;;;;;;932.20;846.20;;;7.40;99.90;;;;;;5075745;28;20470;-84
2022/04/15 03:06:28;;;;;;;917.90;832.10;;;7.30;99.90;;;;;;5074173;28;20840;-81
2022/04/15 03:08:56;;;;;;;913.07;826.17;;;7.30;99.90;;;;;;5075162;28;20451;-82
2022/04/15 03:11:22;;;;;;;902.37;817.30;;;7.40;99.90;;;;;;5075642;28;20481;-83
2022/04/15 03:13:49;;;;;;;915.17;828.97;;;7.30;99.90;;;;;;5073489;28;20451;-83
2022/04/15 03:16:16;;;;;;;929.17;841.13;;;7.30;99.90;;;;;;5075524;28;20457;-83
2022/04/15 03:18:42;;;;;;;934.33;845.43;;;7.30;99.90;;;;;;5074178;28;20466;-83
2022/04/15 03:21:09;;;;;;;913.00;826.77;;;7.30;99.90;;;;;;5075052;28;20461;-83
2022/04/15 03:23:39;;;;;;;916.50;829.40;;;7.30;99.90;;;;;;5095394;28;21001;-84
2022/04/15 03:26:07;;;;;;;923.70;835.90;;;7.30;99.90;;;;;;5095343;28;20454;-83
2022/04/15 03:28:34;;;;;;;919.97;831.20;;;7.10;99.90;;;;;;5094518;28;20505;-82
2022/04/15 03:31:00;;;;;;;926.17;836.57;;;7.10;99.90;;;;;;5094975;28;20454;-82
2022/04/15 03:33:28;;;;;;;924.13;835.13;;;7.10;99.90;;;;;;5074613;28;20451;-84
2022/04/15 03:35:55;;;;;;;924.70;835.90;;;7.00;99.90;;;;;;5074908;28;20508;-82
2022/04/15 03:38:21;;;;;;;926.03;837.43;;;7.10;99.90;;;;;;5091338;28;21021;-83
2022/04/15 03:40:49;;;;;;;938.43;847.50;;;6.90;99.90;;;;;;5080104;28;20457;-83
2022/04/15 03:43:16;;;;;;;937.80;846.90;;;6.90;99.90;;;;;;5090508;28;20450;-83
2022/04/15 03:45:43;;;;;;;942.40;848.27;;;6.80;99.90;;;;;;5094201;28;20456;-86
2022/04/15 03:48:10;;;;;;;943.23;849.90;;;7.00;99.90;;;;;;5086429;28;20967;-81
2022/04/15 03:50:36;;;;;;;937.57;844.80;;;6.90;99.90;;;;;;5085010;28;20821;-83
2022/04/15 03:53:03;;;;;;;936.93;844.43;;;7.00;99.90;;;;;;5074462;28;20460;-83
2022/04/15 03:55:30;;;;;;;942.20;848.90;;;6.80;99.90;;;;;;5073503;28;20454;-82
2022/04/15 03:57:58;;;;;;;946.60;852.50;;;6.90;99.90;;;;;;5074375;28;20473;-85
2022/04/15 04:00:25;;;;;;;935.50;841.60;;;6.80;99.90;;;;;;5081676;28;20457;-83
2022/04/15 04:02:54;;;;;;;949.03;853.33;;;6.70;99.90;;;;;;5088709;28;20450;-83
2022/04/15 04:05:21;;;;;;;944.57;849.17;;;6.70;99.90;;;;;;5074963;28;20474;-82
2022/04/15 04:07:48;;;;;;;946.73;850.33;;;6.70;99.90;;;;;;5079229;28;20469;-84
2022/04/15 04:10:16;;;;;;;956.47;860.77;;;6.60;99.90;;;;;;5091940;28;20449;-83
2022/04/15 04:12:44;;;;;;;969.30;873.90;;;6.70;99.90;;;;;;5092972;28;20449;-82
2022/04/15 04:15:14;;;;;;;966.10;868.67;;;6.60;99.90;;;;;;5081912;28;20442;-83
2022/04/15 04:17:41;;;;;;;953.73;856.93;;;6.60;99.90;;;;;;5077481;28;20545;-84
2022/04/15 04:20:09;;;;;;;942.50;846.40;;;6.50;99.90;;;;;;5073716;28;20450;-85
2022/04/15 04:22:37;;;;;;;956.60;857.80;;;6.60;99.90;;;;;;5070053;28;20451;-84
2022/04/15 04:25:08;;;;;;;958.33;861.73;;;6.60;99.90;;;;;;5054018;28;20853;-84
2022/04/15 04:27:35;;;;;;;955.27;858.40;;;6.60;99.90;;;;;;5071980;28;20470;-85
2022/04/15 04:30:02;;;;;;;963.23;865.73;;;6.60;99.90;;;;;;5083703;28;20453;-83
2022/04/15 04:32:30;;;;;;;959.03;862.23;;;6.50;99.90;;;;;;5095517;28;20449;-83
2022/04/15 04:34:57;;;;;;;954.90;858.50;;;6.40;99.90;;;;;;5083886;28;20447;-84
2022/04/15 04:37:23;;;;;;;959.73;861.43;;;6.50;99.90;;;;;;5072888;28;20874;-85
2022/04/15 04:39:50;;;;;;;948.70;850.53;;;6.40;99.90;;;;;;5076801;28;20452;-85
2022/04/15 04:42:19;;;;;;;959.87;861.67;;;6.40;99.90;;;;;;5090060;28;20453;-86
2022/04/15 04:44:46;;;;;;;961.83;863.27;;;6.40;99.90;;;;;;5089521;28;20482;-85
2022/04/15 04:47:13;;;;;;;952.07;854.80;;;6.30;99.90;;;;;;5091203;28;20864;-84
2022/04/15 04:49:41;;;;;;;960.93;859.40;;;6.20;99.90;;;;;;5092563;28;20441;-84
2022/04/15 04:52:09;;;;;;;966.10;866.23;;;6.30;99.90;;;;;;5074769;28;20458;-83
2022/04/15 04:54:35;;;;;;;965.27;863.83;;;6.30;99.90;;;;;;5073489;28;20984;-84
2022/04/15 04:57:03;;;;;;;975.50;874.40;;;6.30;99.90;;;;;;5073933;28;20466;-86
2022/04/15 04:59:31;;;;;;;978.53;876.83;;;6.30;99.90;;;;;;5078979;28;20471;-84
2022/04/15 05:01:58;;;;;;;975.63;874.63;;;6.50;99.90;;;;;;5093384;28;20457;-84
2022/04/15 05:04:25;;;;;;;982.57;881.37;;;6.60;99.90;;;;;;5092280;28;20474;-86
2022/04/15 05:06:53;;;;;;;968.33;868.40;;;6.60;99.90;;;;;;5073191;28;20481;-85
2022/04/15 05:09:20;;;;;;;958.37;856.97;;;6.70;99.90;;;;;;5070260;28;20458;-85
2022/04/15 05:11:47;;;;;;;948.37;848.47;;;6.70;99.90;;;;;;5085022;28;20446;-85
2022/04/15 05:14:14;;;;;;;958.83;859.63;;;6.80;99.90;;;;;;5081897;28;20450;-84
2022/04/15 05:16:41;;;;;;;957.40;857.43;;;7.00;99.90;;;;;;5076924;28;20451;-84
2022/04/15 05:19:08;;;;;;;945.53;845.47;;;6.80;99.90;;;;;;5071957;28;20959;-84
2022/04/15 05:21:35;;;;;;;939.83;839.50;;;7.00;99.90;;;;;;5074456;28;20447;-82
2022/04/15 05:24:03;;;;;;;943.37;843.70;;;6.90;99.90;;;;;;5075605;28;20655;-82
2022/04/15 05:26:33;;;;;;;934.23;835.43;;;7.10;99.90;;;;;;5082951;28;20450;-84
2022/04/15 05:29:00;;;;;;;949.80;849.83;;;7.00;99.90;;;;;;5086685;28;20486;-82
2022/04/15 05:31:27;;;;;;;942.87;842.73;;;7.10;99.90;;;;;;5072829;28;20821;-82
2022/04/15 05:33:54;;;;;;;934.60;832.70;;;7.20;99.90;;;;;;5072570;28;20446;-82
2022/04/15 05:36:20;;;;;;;935.30;833.77;;;7.30;99.90;;;;;;5071726;28;20447;-83
2022/04/15 05:38:47;;;;;;;924.37;824.03;;;7.50;99.90;;;;;;5071131;28;20485;-82
2022/04/15 05:41:15;;;;;;;920.07;819.80;;;7.60;99.90;;;;;;5072709;28;20454;-83
2022/04/15 05:43:43;;;;;;;922.87;821.70;;;7.70;99.90;;;;;;5068627;28;20970;-82
2022/04/15 05:46:10;;;;;;;930.37;829.67;;;7.90;99.90;;;;;;5072371;28;20490;-82
2022/04/15 05:48:37;;;;;;;925.80;824.57;;;8.10;99.90;;;;;;5071873;28;20470;-82
2022/04/15 05:51:04;;;;;;;921.03;822.13;;;8.20;99.90;;;;;;5071934;28;20458;-83
2022/04/15 05:53:31;;;;;;;917.53;819.23;;;8.20;99.90;;;;;;5072253;28;20454;-82
2022/04/15 05:55:58;;;;;;;929.63;831.00;;;8.40;99.90;;;;;;5074830;28;20450;-83
2022/04/15 05:58:26;;;;;;;920.83;824.10;;;8.50;99.90;;;;;;5078328;28;20555;-83
2022/04/15 06:00:53;;;;;;;936.90;838.90;;;8.50;99.90;;;;;;5092018;28;20449;-84
2022/04/15 06:03:20;;;;;;;949.50;851.13;;;8.60;99.90;;;;;;5077798;28;20968;-87
2022/04/15 06:05:48;;;;;;;929.03;831.87;;;8.70;99.90;;;;;;5076230;28;20482;-82
2022/04/15 06:08:15;;;;;;;923.60;829.80;;;8.80;99.90;;;;;;5088994;28;20476;-84
2022/04/15 06:10:42;;;;;;;920.47;829.23;;;8.90;99.90;;;;;;5077106;28;20454;-82
2022/04/15 06:13:13;;;;;;;922.73;831.63;;;8.90;99.90;;;;;;5087484;28;20445;-83
2022/04/15 06:15:51;;;;;;;923.70;835.43;;;9.00;99.90;;;;;;5076288;28;20537;-83
2022/04/15 06:18:18;;;;;;;911.27;826.20;;;9.10;99.90;;;;;;5086167;28;20531;-83
2022/04/15 06:20:45;;;;;;;894.90;809.23;;;9.20;99.90;;;;;;5080460;28;20482;-85
2022/04/15 06:23:11;;;;;;;886.23;807.83;;;9.30;99.90;;;;;;5073951;28;20961;-82
2022/04/15 06:25:38;;;;;;;891.37;812.70;;;9.30;99.90;;;;;;5089798;28;20462;-82
2022/04/15 06:28:05;;;;;;;878.20;804.10;;;9.50;99.90;;;;;;5082575;28;20545;-82
2022/04/15 06:30:32;;;;;;;848.80;782.20;;;9.50;99.90;;;;;;5078522;28;20836;-82
2022/04/15 06:33:00;;;;;;;849.63;779.67;;;9.50;99.90;;;;;;5089866;28;20453;-81
2022/04/15 06:35:27;;;;;;;851.97;785.07;;;9.60;99.90;;;;;;5095561;28;20453;-82
2022/04/15 06:37:54;;;;;;;806.93;746.93;;;9.70;99.90;;;;;;5081234;28;20481;-82
2022/04/15 06:40:21;;;;;;;816.07;753.77;;;9.80;99.90;;;;;;5076656;28;20457;-82
2022/04/15 06:42:47;;;;;;;795.03;740.57;;;9.90;99.90;;;;;;5085407;28;20473;-82
2022/04/15 06:45:14;;;;;;;793.47;739.03;;;9.80;99.90;;;;;;5099900;28;20480;-81
2022/04/15 06:47:41;;;;;;;769.70;717.40;;;9.80;99.90;;;;;;5096198;28;20469;-82
2022/04/15 06:50:10;;;;;;;805.47;748.57;;;9.80;99.90;;;;;;5090549;28;20828;-81
2022/04/15 06:52:36;;;;;;;773.33;722.43;;;10.00;99.90;;;;;;5095561;28;20453;-84
2022/04/15 06:55:04;;;;;;;743.33;697.27;;;10.00;99.90;;;;;;5095735;28;20453;-81
2022/04/15 06:57:31;;;;;;;722.43;680.57;;;10.10;99.90;;;;;;5095365;28;20477;-81
2022/04/15 06:59:58;;;;;;;745.70;699.97;;;10.00;99.90;;;;;;5094806;28;20461;-81
2022/04/15 07:02:25;;;;;;;663.43;627.70;;;9.90;99.90;;;;;;5095694;28;20465;-81
2022/04/15 07:04:52;;;;;;;720.73;678.60;;;9.90;99.90;;;;;;5093477;28;21005;-81
2022/04/15 07:07:20;;;;;;;626.50;592.20;;;9.90;99.90;;;;;;5093857;28;20559;-81
2022/04/15 07:09:49;;;;;;;672.57;632.97;;;9.70;99.90;;;;;;5093780;28;20910;-81
2022/04/15 07:12:17;;;;;;;661.30;623.90;;;9.80;99.90;;;;;;5079180;28;20490;-82
2022/04/15 07:14:44;;;;;;;691.17;646.10;;;9.80;99.90;;;;;;5054448;28;20533;-81
2022/04/15 07:17:10;;;;;;;723.77;675.37;;;9.70;99.90;;;;;;5052378;28;20479;-81
2022/04/15 07:19:38;;;;;;;720.60;671.00;;;9.60;99.90;;;;;;5065716;28;20447;-81
2022/04/15 07:22:06;;;;;;;686.13;638.93;;;9.60;99.90;;;;;;5074049;28;20486;-80
2022/04/15 07:24:34;;;;;;;680.07;632.73;;;9.60;99.90;;;;;;5074350;28;20471;-80
2022/04/15 07:27:01;;;;;;;758.43;702.33;;;9.40;99.90;;;;;;5073708;28;20471;-86
2022/04/15 07:29:30;;;;;;;763.63;707.53;;;9.50;99.90;;;;;;5072958;28;20461;-80
2022/04/15 07:31:57;;;;;;;783.47;723.97;;;9.40;99.90;;;;;;5073920;28;21012;-81
2022/04/15 07:34:24;;;;;;;750.47;698.20;;;9.30;99.90;;;;;;5073723;28;20489;-80
2022/04/15 07:39:25;;;;;;;680.30;634.20;;;9.20;99.90;;;;;;5097691;22;20482;-84
2022/04/15 07:41:53;;;;;;;708.77;658.03;;;9.20;99.90;;;;;;5075096;28;20478;-84
2022/04/15 07:44:20;;;;;;;669.87;624.63;;;9.20;99.90;;;;;;5074404;28;20447;-83
2022/04/15 07:46:48;;;;;;;644.03;598.43;;;9.20;99.90;;;;;;5073529;28;20481;-82
2022/04/15 07:49:15;;;;;;;636.77;595.40;;;9.20;99.90;;;;;;5073888;28;20474;-83
2022/04/15 07:51:43;;;;;;;626.80;585.90;;;9.20;99.90;;;;;;5073746;28;20465;-82
2022/04/15 07:54:10;;;;;;;648.03;604.63;;;9.10;99.90;;;;;;5074417;28;20970;-84
2022/04/15 07:56:37;;;;;;;492.43;465.80;;;9.10;99.90;;;;;;5075616;28;20875;-84
2022/04/15 07:59:07;;;;;;;530.17;493.27;;;9.00;99.90;;;;;;5072181;28;21015;-84
2022/04/15 08:01:34;;;;;;;625.57;581.00;;;9.00;99.90;;;;;;5075161;28;20450;-84
2022/04/15 08:04:01;;;;;;;622.40;575.10;;;9.10;99.90;;;;;;5077331;28;20453;-85
2022/04/15 08:06:29;;;;;;;618.10;570.77;;;9.00;99.90;;;;;;5077501;28;20518;-84
2022/04/15 08:08:57;;;;;;;544.30;507.80;;;9.00;99.90;;;;;;5074235;28;20476;-84
2022/04/15 08:11:24;;;;;;;411.97;387.20;;;9.10;99.90;;;;;;5073642;28;20455;-83
2022/04/15 08:13:52;;;;;;;444.17;412.57;;;8.90;99.90;;;;;;4994640;28;20492;-85
2022/04/15 08:16:21;;;;;;;495.07;458.73;;;9.10;99.90;;;;;;4996162;28;20923;-85
2022/04/15 08:18:49;;;;;;;500.57;465.10;;;9.20;99.90;;;;;;4976926;28;20510;-85
2022/04/15 08:21:16;;;;;;;525.30;486.33;;;9.10;99.90;;;;;;4975331;28;20466;-85
2022/04/15 08:23:43;;;;;;;565.07;524.27;;;9.00;99.90;;;;;;4977496;28;20458;-84
2022/04/15 08:26:10;;;;;;;509.80;472.83;;;9.00;99.90;;;;;;4975513;28;20487;-85
2022/04/15 08:28:37;;;;;;;416.40;389.80;;;9.00;99.90;;;;;;4975632;28;20482;-84
2022/04/15 08:31:04;;;;;;;312.70;291.47;;;9.10;99.90;;;;;;4975676;28;20463;-84
2022/04/15 08:33:32;;;;;;;227.10;210.97;;;9.20;99.90;;;;;;4975296;28;20493;-86
2022/04/15 08:35:59;;;;;;;177.80;166.00;;;9.40;99.90;;;;;;4979443;28;20951;-85
2022/04/15 08:38:26;;;;;;;91.60;83.63;;;9.70;99.90;;;;;;4975013;28;20498;-84
2022/04/15 08:40:56;;;;;;;69.90;64.13;;;10.00;99.90;;;;;;4975311;28;20467;-84
2022/04/15 08:43:24;;;;;;;61.17;56.40;;;10.00;98.30;;;;;;4974266;28;20505;-84
2022/04/15 08:45:51;;;;;;;45.83;40.33;;;10.30;98.70;;;;;;4978015;28;20490;-85
2022/04/15 08:48:18;;;;;;;38.97;32.10;;;10.50;96.00;;;;;;4976240;28;20475;-85
2022/04/15 08:50:46;;;;;;;39.50;30.07;;;10.60;94.50;;;;;;4977530;28;20486;-85
2022/04/15 08:53:15;;;;;;;44.60;33.60;;;10.70;92.50;;;;;;4976959;28;20455;-84
2022/04/15 08:55:41;;;;;;;34.87;29.43;;;11.40;91.50;;;;;;4974274;28;20458;-85
2022/04/15 08:58:08;;;;;;;33.30;27.17;;;12.30;76.10;;;;;;4977755;28;20497;-84
2022/04/15 09:00:35;;;;;;;34.83;29.33;;;13.60;73.60;;;;;;4975065;28;20465;-84
2022/04/15 09:03:03;;;;;;;32.17;28.73;;;13.50;65.90;;;;;;4973644;28;20459;-85
2022/04/15 09:05:30;;;;;;;29.23;25.17;;;13.10;66.60;;;;;;4976718;28;20570;-84
2022/04/15 09:08:06;;;;;;;29.93;22.00;;;12.60;63.30;;;;;;4976889;28;20475;-84
2022/04/15 09:10:34;;;;;;;33.53;26.03;;;12.40;67.20;;;;;;4974293;28;20463;-84
2022/04/15 09:13:01;;;;;;;37.27;29.17;;;12.30;66.80;;;;;;4977884;28;20521;-85
2022/04/15 09:15:28;;;;;;;31.70;28.30;;;12.90;65.30;;;;;;4977320;28;20839;-84
2022/04/15 09:17:55;;;;;;;30.27;26.97;;;13.30;62.40;;;;;;4975784;28;20490;-85
2022/04/15 09:20:22;;;;;;;32.50;27.13;;;13.80;57.60;;;;;;4977322;28;20522;-84
2022/04/15 09:22:55;;;;;;;31.03;27.00;;;13.00;60.00;;;;;;4976699;28;20462;-85
2022/04/15 09:25:27;;;;;;;31.90;28.53;;;13.10;63.80;;;;;;4975980;28;20476;-85
2022/04/15 09:27:58;;;;;;;23.53;17.30;;;13.60;59.70;;;;;;4978550;28;21009;-85
2022/04/15 09:30:35;;;;;;;28.97;25.87;;;13.40;54.10;;;;;;4972167;28;20911;-85
2022/04/15 09:33:03;;;;;;;27.63;23.40;;;13.30;57.80;;;;;;4976424;28;20466;-85
2022/04/15 09:35:31;;;;;;;25.60;21.70;;;13.20;59.50;;;;;;4979938;28;20453;-84
2022/04/15 09:38:03;;;;;;;28.67;25.00;;;13.20;58.50;;;;;;4975643;28;20496;-85
2022/04/15 09:40:35;;;;;;;29.13;22.23;;;13.00;61.70;;;;;;4975499;28;20497;-84
2022/04/15 09:43:04;;;;;;;24.13;21.50;;;13.00;55.60;;;;;;4974829;28;20455;-84
2022/04/15 09:45:34;;;;;;;20.73;17.60;;;13.20;58.00;;;;;;4976061;28;20995;-84
2022/04/15 09:48:02;;;;;;;26.30;20.43;;;13.00;57.90;;;;;;4974815;28;20476;-85
2022/04/15 09:50:31;;;;;;;24.27;20.97;;;12.80;55.60;;;;;;4976343;28;20816;-85
2022/04/15 09:53:09;;;;;;;22.87;20.47;;;12.80;56.60;;;;;;4979010;28;20459;-86
2022/04/15 09:55:40;;;;;;;20.57;16.10;;;13.10;55.40;;;;;;4974814;28;20452;-84
2022/04/15 09:58:09;;;;;;;27.97;21.40;;;12.70;52.40;;;;;;4977014;28;20567;-84
2022/04/15 10:00:37;;;;;;;23.27;19.30;;;13.20;54.40;;;;;;4973742;28;20455;-85
2022/04/15 10:03:07;;;;;;;21.90;19.60;;;13.80;52.60;;;;;;4977329;28;20458;-86
2022/04/15 10:05:35;;;;;;;17.90;15.00;;;14.40;52.60;;;;;;4975386;28;20482;-85
2022/04/15 10:08:03;;;;;;;17.07;14.97;;;14.30;47.90;;;;;;4975566;28;21019;-86
2022/04/15 10:10:30;;;;;;;16.57;11.20;;;14.90;43.30;;;;;;4976322;28;20846;-85
2022/04/15 10:13:00;;;;;;;15.70;13.97;;;14.70;43.30;;;;;;4976185;28;20460;-86
2022/04/15 10:15:29;;;;;;;15.30;11.67;;;15.10;38.60;;;;;;4976779;28;20453;-85
2022/04/15 10:17:56;;;;;;;14.50;13.00;;;15.20;43.70;;;;;;4978446;28;20473;-85
2022/04/15 10:20:24;;;;;;;16.43;14.00;;;15.10;41.90;;;;;;4979023;28;20463;-86
2022/04/15 10:22:51;;;;;;;14.43;12.23;;;15.50;41.50;;;;;;4977092;28;20453;-86
2022/04/15 10:25:18;;;;;;;13.70;11.90;;;16.10;36.40;;;;;;4981219;28;20520;-85
2022/04/15 10:27:45;;;;;;;15.33;13.20;;;17.00;31.80;;;;;;4976365;28;20490;-85
2022/04/15 10:30:18;;;;;;;14.43;12.03;;;15.80;35.80;;;;;;4977538;28;20453;-86
2022/04/15 10:32:50;;;;;;;20.17;13.30;;;15.90;35.60;;;;;;4976125;28;20463;-85
2022/04/15 10:35:22;;;;;;;16.53;12.23;;;16.20;37.60;;;;;;4976525;28;20453;-86
2022/04/15 10:37:55;;;;;;;13.03;11.60;;;16.10;31.60;;;;;;4977909;28;20515;-85
2022/04/15 10:40:23;;;;;;;13.33;11.70;;;16.00;31.70;;;;;;4976232;28;20457;-85
2022/04/15 10:42:50;;;;;;;16.67;12.50;;;15.40;31.00;;;;;;4980962;28;20465;-86
2022/04/15 10:45:29;;;;;;;16.50;13.17;;;16.00;36.00;;;;;;4983802;28;20456;-86
2022/04/15 10:47:59;;;;;;;16.17;12.83;;;16.90;28.90;;;;;;4980134;28;20477;-85
2022/04/15 10:50:28;;;;;;;16.70;13.93;;;16.40;29.70;;;;;;4978438;28;20458;-85
2022/04/15 10:53:16;;;;;;;17.60;12.17;;;15.70;32.60;;;;;;4978640;28;20849;-85
2022/04/15 10:55:44;;;;;;;14.50;12.87;;;14.90;33.30;;;;;;4980385;28;20833;-86
2022/04/15 10:58:14;;;;;;;15.50;12.90;;;15.40;34.70;;;;;;4981731;28;20564;-86
2022/04/15 11:03:29;;;;;;;17.23;14.80;;;17.20;31.40;;;;;;4978337;28;20524;-85
2022/04/15 11:05:57;;;;;;;20.10;18.00;;;16.10;30.30;;;;;;4982049;28;20867;-86
2022/04/15 11:08:26;;;;;;;19.07;15.93;;;16.80;27.00;;;;;;4981873;28;20851;-86
2022/04/15 11:11:02;;;;;;;20.73;18.60;;;17.60;29.30;;;;;;4980589;28;20463;-85
2022/04/15 11:13:54;;;;;;;17.73;14.30;;;16.50;30.50;;;;;;4977572;28;20551;-85
2022/04/15 11:16:22;;;;;;;20.77;17.77;;;15.90;31.40;;;;;;4977468;28;20455;-85
2022/04/15 11:18:51;;;;;;;20.97;14.30;;;15.60;32.50;;;;;;4976210;28;20477;-84
2022/04/15 11:21:19;;;;;;;23.93;21.30;;;15.70;33.90;;;;;;4976949;28;20463;-85
2022/04/15 11:23:48;;;;;;;27.97;23.23;;;15.80;34.70;;;;;;4976866;28;20469;-85
2022/04/15 11:26:16;;;;;;;23.53;20.37;;;16.20;33.60;;;;;;4978000;28;20483;-85
2022/04/15 11:28:45;;;;;;;21.83;18.87;;;16.60;29.70;;;;;;4977775;28;20507;-85
2022/04/15 11:31:24;;;;;;;29.90;25.90;;;17.10;28.40;;;;;;4978411;28;20465;-85
2022/04/15 11:33:51;;;;;;;24.23;21.53;;;16.50;31.30;;;;;;4975716;28;20451;-85
2022/04/15 11:36:20;;;;;;;28.27;25.30;;;15.50;32.70;;;;;;4980537;28;20451;-86
2022/04/15 11:38:47;;;;;;;25.30;17.90;;;15.70;31.30;;;;;;4978109;28;20518;-85
2022/04/15 11:41:17;;;;;;;26.73;23.93;;;16.30;30.00;;;;;;4976338;28;20462;-85
2022/04/15 11:43:59;;;;;;;26.53;22.97;;;16.20;30.10;;;;;;4977088;28;20460;-86
2022/04/15 11:46:38;;;;;;;23.10;20.30;;;15.70;28.80;;;;;;4976832;28;20487;-85
2022/04/15 11:49:11;;;;;;;25.37;18.50;;;15.20;31.90;;;;;;4979608;28;20472;-85
2022/04/15 11:51:38;;;;;;;29.13;22.83;;;15.30;31.90;;;;;;4980051;28;20477;-85
2022/04/15 11:54:05;;;;;;;26.80;23.60;;;15.50;33.10;;;;;;4979703;28;20457;-84
2022/04/15 11:56:36;;;;;;;26.57;16.87;;;15.40;36.80;;;;;;4978808;28;20451;-85
2022/04/15 11:59:04;;;;;;;34.10;30.40;;;14.60;35.10;;;;;;4978867;28;20475;-85
2022/04/15 12:01:32;;;;;;;24.80;22.13;;;14.80;40.90;;;;;;4977430;28;20460;-84
2022/04/15 12:04:00;;;;;;;27.60;22.07;;;14.90;35.60;;;;;;4979199;28;20835;-84
2022/04/15 12:06:26;;;;;;;29.03;25.60;;;15.20;34.50;;;;;;4979943;28;20491;-84
2022/04/15 12:08:54;;;;;;;34.23;30.30;;;15.40;32.50;;;;;;4978106;28;20484;-86
2022/04/15 12:11:23;;;;;;;26.33;22.37;;;15.50;32.70;;;;;;4976571;28;20453;-84
2022/04/15 12:13:58;;;;;;;28.47;24.90;;;15.30;34.40;;;;;;4976045;28;20557;-84
2022/04/15 12:16:25;;;;;;;33.70;30.07;;;16.30;28.80;;;;;;4977647;28;20456;-85
2022/04/15 12:18:54;;;;;;;31.00;27.87;;;16.20;31.70;;;;;;4974710;28;20840;-85
2022/04/15 12:21:25;;;;;;;31.10;27.90;;;15.80;31.40;;;;;;4976268;28;20845;-85
2022/04/15 12:24:06;;;;;;;34.23;30.83;;;15.30;34.50;;;;;;4978049;28;20551;-85
2022/04/15 12:26:43;;;;;;;32.73;27.83;;;16.00;31.90;;;;;;4979008;28;20485;-84
2022/04/15 12:31:55;;;;;;;31.77;28.23;;;15.60;31.20;;;;;;4976542;28;20441;-84
2022/04/15 12:34:32;;;;;;;31.53;27.00;;;15.00;33.30;;;;;;4976643;28;20467;-84